createdAt,value
2018-05-04T00:00:11.988Z,4.87
2018-05-04T00:02:37.715Z,3.97
2018-05-04T00:05:03.473Z,4.07
2018-05-04T00:07:29.212Z,5.67
2018-05-04T00:09:54.967Z,4.33
2018-05-04T00:12:20.718Z,4.37
2018-05-04T00:14:46.456Z,4.27
2018-05-04T00:17:12.197Z,5.00
2018-05-04T00:19:37.920Z,4.43
2018-05-04T00:22:03.696Z,4.10
2018-05-04T00:24:29.436Z,4.50
2018-05-04T00:26:55.284Z,4.10
2018-05-04T00:29:21.032Z,4.70
2018-05-04T00:31:46.769Z,4.10
2018-05-04T00:34:13.002Z,4.20
2018-05-04T00:36:39.172Z,4.60
2018-05-04T00:39:05.088Z,4.30
2018-05-04T00:41:30.841Z,4.20
2018-05-04T00:43:56.599Z,3.93
2018-05-04T00:46:22.369Z,4.00
2018-05-04T00:48:48.106Z,4.20
2018-05-04T00:51:13.843Z,5.27
2018-05-04T00:53:51.932Z,5.93
2018-05-04T00:56:17.782Z,4.47
2018-05-04T00:58:43.748Z,5.83
2018-05-04T01:01:09.493Z,5.73
2018-05-04T01:03:35.259Z,6.47
2018-05-04T01:06:00.997Z,6.33
2018-05-04T01:08:26.729Z,5.43
2018-05-04T01:10:52.460Z,4.77
2018-05-04T01:13:18.206Z,5.00
2018-05-04T01:15:43.944Z,4.27
2018-05-04T01:18:09.690Z,5.30
2018-05-04T01:20:35.405Z,5.07
2018-05-04T01:23:01.137Z,6.60
2018-05-04T01:25:26.868Z,4.90
2018-05-04T01:27:52.604Z,5.20
2018-05-04T01:30:18.335Z,6.03
2018-05-04T01:32:44.085Z,5.70
2018-05-04T01:35:09.808Z,4.80
2018-05-04T01:37:35.548Z,5.10
2018-05-04T01:40:01.289Z,5.40
2018-05-04T01:42:27.032Z,4.80
2018-05-04T01:44:52.758Z,5.27
2018-05-04T01:47:18.489Z,5.53
2018-05-04T01:49:44.223Z,5.23
2018-05-04T01:52:09.952Z,5.83
2018-05-04T01:54:35.680Z,6.00
2018-05-04T01:57:01.462Z,6.50
2018-05-04T01:59:27.199Z,7.20
2018-05-04T02:01:52.931Z,6.27
2018-05-04T02:04:18.655Z,6.00
2018-05-04T02:06:44.385Z,5.60
2018-05-04T02:09:10.154Z,5.73
2018-05-04T02:11:35.900Z,5.50
2018-05-04T02:14:01.627Z,5.60
2018-05-04T02:16:27.357Z,5.77
2018-05-04T02:18:53.097Z,6.00
2018-05-04T02:21:18.842Z,5.27
2018-05-04T02:23:44.572Z,6.20
2018-05-04T02:26:10.289Z,5.33
2018-05-04T02:28:36.012Z,5.40
2018-05-04T02:31:01.742Z,5.90
2018-05-04T02:33:27.477Z,5.40
2018-05-04T02:35:53.208Z,6.00
2018-05-04T02:38:18.944Z,5.73
2018-05-04T02:40:44.671Z,6.13
2018-05-04T02:43:10.402Z,5.80
2018-05-04T02:45:36.131Z,6.00
2018-05-04T02:48:01.874Z,5.73
2018-05-04T02:50:27.616Z,6.13
2018-05-04T02:52:53.352Z,5.50
2018-05-04T02:55:19.142Z,6.20
2018-05-04T02:57:44.849Z,5.80
2018-05-04T03:00:10.585Z,5.90
2018-05-04T03:02:36.317Z,6.00
2018-05-04T03:05:02.062Z,6.10
2018-05-04T03:07:27.804Z,6.73
2018-05-04T03:09:53.544Z,5.87
2018-05-04T03:12:19.279Z,6.27
2018-05-04T03:14:45.016Z,6.23
2018-05-04T03:17:10.751Z,6.40
2018-05-04T03:19:36.479Z,6.60
2018-05-04T03:22:02.320Z,5.70
2018-05-04T03:24:27.975Z,5.83
2018-05-04T03:26:53.708Z,5.73
2018-05-04T03:29:19.431Z,5.80
2018-05-04T03:31:45.156Z,5.63
2018-05-04T03:34:10.895Z,5.57
2018-05-04T03:36:36.631Z,5.70
2018-05-04T03:39:02.384Z,6.83
2018-05-04T03:41:28.120Z,8.10
2018-05-04T03:43:53.868Z,7.20
2018-05-04T03:46:19.613Z,6.07
2018-05-04T03:48:45.383Z,5.70
2018-05-04T03:51:11.081Z,5.87
2018-05-04T03:53:36.808Z,5.97
2018-05-04T03:56:02.536Z,5.70
2018-05-04T04:11:53.440Z,7.37
2018-05-04T04:14:19.188Z,7.90
2018-05-04T04:16:44.924Z,6.17
2018-05-04T04:19:10.665Z,5.87
2018-05-04T04:21:36.393Z,5.80
2018-05-04T04:24:02.132Z,6.23
2018-05-04T04:26:27.863Z,6.33
2018-05-04T04:28:53.599Z,6.10
2018-05-04T04:31:19.325Z,7.00
2018-05-04T04:33:45.056Z,7.33
2018-05-04T04:36:10.795Z,6.87
2018-05-04T04:38:36.535Z,6.93
2018-05-04T04:41:02.261Z,7.43
2018-05-04T04:43:28.000Z,7.43
2018-05-04T04:45:53.732Z,7.47
2018-05-04T04:48:19.468Z,6.87
2018-05-04T04:50:45.196Z,6.97
2018-05-04T04:53:10.938Z,6.97
2018-05-04T04:55:36.664Z,7.53
2018-05-04T04:58:02.408Z,7.30
2018-05-04T05:00:28.150Z,6.63
2018-05-04T05:02:53.876Z,7.20
2018-05-04T05:05:19.613Z,7.43
2018-05-04T05:07:45.353Z,7.83
2018-05-04T05:10:11.106Z,7.13
2018-05-04T05:12:36.836Z,7.57
2018-05-04T05:15:02.568Z,7.70
2018-05-04T05:17:28.294Z,7.37
2018-05-04T05:19:54.032Z,7.17
2018-05-04T05:22:19.745Z,7.87
2018-05-04T05:24:45.496Z,7.90
2018-05-04T05:27:11.220Z,7.57
2018-05-04T05:29:37.033Z,6.77
2018-05-04T05:32:02.697Z,7.80
2018-05-04T05:34:28.415Z,7.83
2018-05-04T05:36:54.136Z,8.27
2018-05-04T05:39:19.863Z,8.53
2018-05-04T05:41:45.590Z,8.40
2018-05-04T05:44:11.333Z,7.73
2018-05-04T05:46:37.055Z,8.30
2018-05-04T05:49:02.794Z,8.27
2018-05-04T05:51:28.513Z,7.50
2018-05-04T05:53:54.231Z,7.77
2018-05-04T05:56:19.952Z,7.07
2018-05-04T05:58:45.696Z,6.80
2018-05-04T06:01:11.424Z,8.03
2018-05-04T06:03:37.155Z,7.97
2018-05-04T06:06:02.892Z,7.63
2018-05-04T06:08:28.604Z,7.40
2018-05-04T06:10:54.337Z,6.87
2018-05-04T06:13:20.067Z,6.47
2018-05-04T06:15:45.808Z,6.20
2018-05-04T06:18:11.543Z,6.27
2018-05-04T06:20:37.281Z,6.57
2018-05-04T06:23:03.028Z,6.60
2018-05-04T06:25:28.761Z,4.77
2018-05-04T06:27:54.513Z,4.93
2018-05-04T06:30:20.293Z,5.27
2018-05-04T06:32:46.045Z,5.27
2018-05-04T06:35:11.768Z,4.70
2018-05-04T06:37:37.500Z,4.57
2018-05-04T06:40:03.228Z,4.10
2018-05-04T06:42:28.956Z,4.10
2018-05-04T06:44:54.713Z,3.53
2018-05-04T06:47:20.463Z,4.03
2018-05-04T06:49:46.191Z,3.47
2018-05-04T06:52:11.905Z,3.83
2018-05-04T06:54:37.638Z,4.00
2018-05-04T06:57:03.354Z,3.93
2018-05-04T06:59:29.119Z,3.90
2018-05-04T07:01:54.866Z,3.63
2018-05-04T07:04:20.625Z,4.57
2018-05-04T07:06:46.361Z,3.83
2018-05-04T07:09:12.088Z,4.07
2018-05-04T07:11:37.813Z,4.23
2018-05-04T07:14:03.544Z,4.27
2018-05-04T07:16:29.285Z,4.13
2018-05-04T07:18:55.024Z,4.90
2018-05-04T07:21:20.761Z,4.00
2018-05-04T07:23:46.491Z,4.17
2018-05-04T07:26:12.228Z,5.67
2018-05-04T07:28:38.028Z,4.70
2018-05-04T07:31:03.736Z,4.20
2018-05-04T07:33:29.483Z,5.83
2018-05-04T07:35:55.259Z,5.53
2018-05-04T07:38:20.997Z,5.93
2018-05-04T07:40:46.778Z,4.17
2018-05-04T07:43:12.599Z,4.00
2018-05-04T07:45:38.273Z,3.40
2018-05-04T07:48:04.045Z,4.37
2018-05-04T07:50:29.792Z,3.97
2018-05-04T07:52:55.508Z,5.00
2018-05-04T07:55:21.257Z,4.97
2018-05-04T07:57:47.000Z,5.17
2018-05-04T08:00:12.762Z,4.80
2018-05-04T08:02:38.499Z,3.17
2018-05-04T08:05:04.257Z,3.40
2018-05-04T08:07:29.997Z,3.33
2018-05-04T08:09:55.736Z,3.53
2018-05-04T08:12:21.468Z,3.47
2018-05-04T08:14:47.187Z,3.57
2018-05-04T08:17:12.940Z,3.43
2018-05-04T08:19:38.664Z,3.80
2018-05-04T08:22:04.410Z,3.50
2018-05-04T08:24:30.176Z,3.47
2018-05-04T08:26:55.913Z,3.57
2018-05-04T08:29:21.647Z,3.00
2018-05-04T08:31:47.379Z,3.43
2018-05-04T08:34:13.139Z,3.10
2018-05-04T08:36:38.884Z,4.03
2018-05-04T08:39:04.617Z,3.33
2018-05-04T08:41:30.376Z,3.30
2018-05-04T08:43:56.096Z,3.47
2018-05-04T08:46:21.832Z,3.13
2018-05-04T08:48:47.559Z,2.53
2018-05-04T08:51:13.326Z,2.80
2018-05-04T08:53:39.045Z,3.00
2018-05-04T08:56:04.788Z,3.00
2018-05-04T08:58:30.517Z,3.03
2018-05-04T09:00:56.255Z,2.53
2018-05-04T09:03:21.989Z,2.70
2018-05-04T09:05:47.719Z,2.40
2018-05-04T09:08:13.440Z,2.53
2018-05-04T09:10:39.173Z,2.67
2018-05-04T09:13:04.904Z,2.30
2018-05-04T09:15:30.654Z,2.43
2018-05-04T09:17:56.380Z,2.27
2018-05-04T09:20:22.100Z,2.30
2018-05-04T09:22:47.844Z,2.03
2018-05-04T09:25:13.628Z,2.40
2018-05-04T09:27:39.324Z,2.77
2018-05-04T09:30:05.048Z,2.20
2018-05-04T09:32:30.792Z,2.57
2018-05-04T09:34:56.532Z,2.00
2018-05-04T09:37:22.279Z,2.63
2018-05-04T09:39:48.000Z,2.40
2018-05-04T09:42:13.738Z,2.17
2018-05-04T09:44:39.457Z,1.97
2018-05-04T09:47:05.213Z,2.17
2018-05-04T09:49:30.944Z,2.40
2018-05-04T09:51:56.681Z,2.13
2018-05-04T09:54:22.417Z,2.17
2018-05-04T09:56:48.150Z,2.23
2018-05-04T09:59:13.889Z,2.67
2018-05-04T10:01:39.634Z,2.00
2018-05-04T10:04:05.369Z,2.00
2018-05-04T10:06:31.150Z,2.00
2018-05-04T10:08:56.882Z,1.77
2018-05-04T10:11:22.624Z,2.57
2018-05-04T10:13:48.343Z,1.90
2018-05-04T10:16:14.088Z,1.90
2018-05-04T10:18:39.815Z,1.90
2018-05-04T10:21:05.881Z,1.97
2018-05-04T10:23:31.945Z,1.90
2018-05-04T10:25:58.028Z,2.50
2018-05-04T10:28:23.801Z,2.13
2018-05-04T10:30:49.915Z,2.00
2018-05-04T10:33:15.692Z,1.73
2018-05-04T10:35:41.422Z,1.73
2018-05-04T10:38:07.194Z,1.90
2018-05-04T10:40:32.944Z,1.90
2018-05-04T10:42:58.690Z,2.30
2018-05-04T10:45:24.425Z,1.87
2018-05-04T10:47:50.163Z,2.20
2018-05-04T10:50:15.934Z,1.90
2018-05-04T10:52:41.697Z,2.30
2018-05-04T10:55:07.456Z,2.60
2018-05-04T10:57:33.196Z,1.90
2018-05-04T10:59:58.944Z,2.30
2018-05-04T11:02:24.682Z,2.07
2018-05-04T11:04:50.414Z,2.43
2018-05-04T11:07:16.168Z,2.30
2018-05-04T11:09:41.908Z,2.10
2018-05-04T11:12:07.658Z,2.40
2018-05-04T11:14:33.388Z,2.07
2018-05-04T11:17:04.158Z,2.10
2018-05-04T11:19:30.335Z,2.20
2018-05-04T11:21:56.060Z,2.10
2018-05-04T11:24:25.002Z,2.37
2018-05-04T11:26:52.248Z,2.00
2018-05-04T11:29:18.077Z,2.20
2018-05-04T11:31:43.826Z,2.23
2018-05-04T11:34:09.616Z,1.90
2018-05-04T11:36:35.358Z,2.30
2018-05-04T11:39:01.107Z,2.13
2018-05-04T11:41:27.042Z,2.10
2018-05-04T11:43:52.800Z,2.27
2018-05-04T11:46:18.528Z,2.30
2018-05-04T11:48:44.281Z,1.80
2018-05-04T11:51:10.014Z,2.47
2018-05-04T11:53:35.959Z,2.30
2018-05-04T11:56:01.886Z,2.47
2018-05-04T11:58:27.851Z,2.13
2018-05-04T12:00:53.834Z,2.20
2018-05-04T12:03:19.807Z,2.10
2018-05-04T12:05:45.755Z,2.33
2018-05-04T12:08:11.504Z,2.20
2018-05-04T12:10:37.224Z,1.87
2018-05-04T12:13:02.983Z,2.17
2018-05-04T12:15:28.726Z,2.37
2018-05-04T12:17:54.465Z,2.40
2018-05-04T12:20:20.213Z,2.10
2018-05-04T12:22:46.236Z,2.33
2018-05-04T12:25:11.947Z,2.27
2018-05-04T12:27:37.688Z,2.07
2018-05-04T12:30:03.436Z,2.10
2018-05-04T12:32:29.180Z,2.10
2018-05-04T12:34:55.081Z,1.70
2018-05-04T12:37:20.841Z,2.23
2018-05-04T12:39:46.569Z,2.00
2018-05-04T12:42:12.300Z,2.17
2018-05-04T12:44:38.035Z,2.27
2018-05-04T12:47:03.829Z,2.10
2018-05-04T12:49:29.717Z,2.00
2018-05-04T12:51:55.643Z,2.00
2018-05-04T12:54:21.599Z,2.20
2018-05-04T12:56:47.597Z,2.20
2018-05-04T12:59:13.340Z,2.20
2018-05-04T13:01:39.068Z,2.00
2018-05-04T13:04:04.801Z,2.03
2018-05-04T13:06:30.527Z,2.10
2018-05-04T13:08:56.288Z,1.93
2018-05-04T13:11:22.152Z,1.80
2018-05-04T13:13:48.070Z,2.20
2018-05-04T13:16:13.952Z,2.50
2018-05-04T13:18:39.852Z,2.40
2018-05-04T13:21:05.577Z,2.10
2018-05-04T13:23:31.316Z,1.90
2018-05-04T13:25:57.043Z,2.07
2018-05-04T13:28:22.784Z,2.30
2018-05-04T13:30:48.513Z,2.30
2018-05-04T13:33:14.252Z,2.33
2018-05-04T13:35:39.987Z,2.03
2018-05-04T13:38:05.724Z,2.20
2018-05-04T13:40:31.460Z,2.03
2018-05-04T13:42:57.212Z,1.93
2018-05-04T13:45:22.942Z,1.80
2018-05-04T13:47:48.697Z,2.27
2018-05-04T13:50:14.420Z,2.03
2018-05-04T13:52:40.148Z,2.20
2018-05-04T13:55:05.893Z,2.00
2018-05-04T13:57:31.615Z,2.40
2018-05-04T13:59:57.377Z,1.97
2018-05-04T14:02:23.124Z,2.10
2018-05-04T14:04:48.880Z,1.90
2018-05-04T14:07:14.621Z,2.10
2018-05-04T14:09:40.373Z,2.03
2018-05-04T14:12:06.116Z,1.83
2018-05-04T14:14:31.856Z,2.00
2018-05-04T14:16:57.609Z,2.60
2018-05-04T14:19:23.348Z,2.10
2018-05-04T14:21:49.086Z,2.27
2018-05-04T14:24:14.827Z,2.17
2018-05-04T14:26:40.560Z,1.87
2018-05-04T14:29:06.308Z,1.90
2018-05-04T14:31:32.087Z,2.23
2018-05-04T14:33:57.828Z,2.37
2018-05-04T14:36:23.561Z,2.10
2018-05-04T14:38:49.308Z,1.97
2018-05-04T14:41:15.038Z,2.20
2018-05-04T14:43:40.781Z,2.47
2018-05-04T14:46:06.577Z,2.27
2018-05-04T14:48:32.327Z,2.23
2018-05-04T14:50:58.054Z,2.40
2018-05-04T14:53:23.812Z,2.37
2018-05-04T14:55:49.548Z,2.20
2018-05-04T14:58:15.332Z,2.13
2018-05-04T15:00:41.073Z,1.90
2018-05-04T15:03:06.804Z,2.30
2018-05-04T15:05:32.550Z,2.20
2018-05-04T15:07:58.282Z,1.97
2018-05-04T15:10:24.025Z,1.93
2018-05-04T15:12:49.757Z,2.30
2018-05-04T15:15:15.497Z,2.33
2018-05-04T15:17:41.240Z,2.33
2018-05-04T15:20:06.981Z,2.20
2018-05-04T15:22:32.713Z,2.33
2018-05-04T15:24:58.516Z,2.20
2018-05-04T15:27:24.185Z,2.17
2018-05-04T15:29:49.964Z,2.10
2018-05-04T15:32:15.707Z,2.10
2018-05-04T15:34:41.440Z,2.10
2018-05-04T15:37:07.173Z,2.30
2018-05-04T15:39:32.912Z,2.10
2018-05-04T15:41:58.639Z,2.00
2018-05-04T15:44:24.385Z,1.90
2018-05-04T15:46:50.111Z,2.40
2018-05-04T15:49:19.833Z,2.03
2018-05-04T15:51:51.809Z,2.50
2018-05-04T15:54:17.573Z,1.70
2018-05-04T15:56:43.321Z,2.30
2018-05-04T15:59:09.124Z,2.30
2018-05-04T16:01:34.861Z,2.03
2018-05-04T16:04:00.626Z,2.30
2018-05-04T16:06:26.428Z,2.13
2018-05-04T16:08:52.273Z,1.97
2018-05-04T16:11:18.005Z,2.40
2018-05-04T16:13:43.754Z,1.90
2018-05-04T16:16:09.474Z,2.13
2018-05-04T16:18:35.193Z,1.83
2018-05-04T16:21:00.941Z,1.80
2018-05-04T16:23:26.660Z,2.90
2018-05-04T16:25:52.400Z,2.87
2018-05-04T16:28:18.117Z,2.73
2018-05-04T16:30:43.874Z,2.97
2018-05-04T16:33:09.618Z,2.77
2018-05-04T16:35:35.406Z,2.60
2018-05-04T16:38:01.145Z,2.50
2018-05-04T16:40:26.896Z,3.03
2018-05-04T16:42:52.664Z,2.77
2018-05-04T16:45:18.485Z,3.63
2018-05-04T16:47:50.348Z,3.73
2018-05-04T16:50:16.085Z,3.90
2018-05-04T16:52:41.821Z,3.00
2018-05-04T16:55:07.555Z,3.70
2018-05-04T16:57:33.307Z,3.10
2018-05-04T16:59:59.112Z,3.00
2018-05-04T17:02:24.928Z,3.17
2018-05-04T17:04:50.688Z,3.17
2018-05-04T17:07:16.448Z,3.00
2018-05-04T17:09:42.180Z,2.80
2018-05-04T17:12:07.930Z,3.87
2018-05-04T17:14:33.660Z,3.30
2018-05-04T17:16:59.412Z,2.67
2018-05-04T17:19:25.244Z,3.40
2018-05-04T17:21:51.040Z,3.03
2018-05-04T17:24:16.864Z,2.97
2018-05-04T17:26:42.609Z,3.30
2018-05-04T17:29:08.352Z,2.90
2018-05-04T17:31:34.095Z,2.63
2018-05-04T17:33:59.871Z,2.60
2018-05-04T17:36:25.567Z,2.73
2018-05-04T17:38:51.296Z,2.43
2018-05-04T17:41:17.062Z,2.87
2018-05-04T17:43:42.818Z,2.70
2018-05-04T17:46:08.574Z,3.23
2018-05-04T17:48:34.375Z,2.80
2018-05-04T17:51:00.157Z,2.93
2018-05-04T17:53:26.020Z,3.00
2018-05-04T17:55:51.839Z,2.90
2018-05-04T17:58:17.580Z,2.70
2018-05-04T18:00:43.385Z,2.73
2018-05-04T18:03:09.134Z,2.77
2018-05-04T18:05:34.983Z,2.40
2018-05-04T18:08:00.706Z,3.17
2018-05-04T18:10:26.429Z,2.70
2018-05-04T18:12:52.176Z,3.07
2018-05-04T18:15:17.908Z,3.40
2018-05-04T18:17:43.672Z,3.27
2018-05-04T18:20:09.389Z,3.60
2018-05-04T18:22:35.119Z,2.90
2018-05-04T18:25:00.849Z,2.83
2018-05-04T18:27:26.584Z,3.13
2018-05-04T18:29:52.300Z,2.97
2018-05-04T18:32:18.061Z,2.80
2018-05-04T18:34:43.788Z,2.70
2018-05-04T18:37:09.527Z,2.73
2018-05-04T18:39:35.266Z,2.40
2018-05-04T18:42:00.996Z,2.53
2018-05-04T18:44:26.711Z,2.90
2018-05-04T18:46:52.449Z,2.90
2018-05-04T18:49:18.175Z,2.90
2018-05-04T18:51:43.921Z,2.60
2018-05-04T18:54:09.655Z,2.60
2018-05-04T18:56:35.408Z,2.97
2018-05-04T18:59:01.140Z,2.90
2018-05-04T19:01:26.878Z,3.57
2018-05-04T19:03:52.600Z,3.50
2018-05-04T19:06:18.340Z,3.60
2018-05-04T19:08:44.069Z,4.30
2018-05-04T19:11:09.813Z,3.57
2018-05-04T19:13:35.549Z,3.70
2018-05-04T19:16:01.289Z,4.13
2018-05-04T19:18:27.029Z,5.47
2018-05-04T19:20:52.792Z,8.10
2018-05-04T19:23:18.525Z,5.17
2018-05-04T19:25:44.260Z,6.10
2018-05-04T19:28:10.006Z,8.30
2018-05-04T19:30:35.756Z,7.67
2018-05-04T19:33:01.493Z,6.17
2018-05-04T19:35:27.242Z,4.50
2018-05-04T19:37:52.989Z,4.50
2018-05-04T19:40:18.720Z,4.33
2018-05-04T19:42:44.461Z,5.30
2018-05-04T19:45:10.196Z,4.90
2018-05-04T19:47:36.665Z,5.10
2018-05-04T19:50:02.424Z,4.47
2018-05-04T19:52:28.165Z,4.10
2018-05-04T19:54:53.897Z,3.90
2018-05-04T19:57:19.646Z,3.60
2018-05-04T19:59:45.392Z,3.30
2018-05-04T20:02:11.136Z,3.30
2018-05-04T20:04:36.865Z,3.50
2018-05-04T20:07:02.689Z,2.83
2018-05-04T20:09:28.368Z,3.53
2018-05-04T20:11:54.118Z,2.90
2018-05-04T20:14:19.845Z,3.00
2018-05-04T20:16:46.035Z,3.10
2018-05-04T20:19:11.769Z,3.33
2018-05-04T20:21:37.500Z,3.40
2018-05-04T20:24:03.242Z,3.10
2018-05-04T20:26:28.997Z,3.40
2018-05-04T20:28:54.765Z,4.50
2018-05-04T20:31:20.477Z,13.67
2018-05-04T20:33:46.213Z,7.83
2018-05-04T20:36:11.941Z,13.00
2018-05-04T20:38:37.743Z,11.93
2018-05-04T20:41:03.492Z,10.83
2018-05-04T20:43:29.228Z,7.87
2018-05-04T20:45:54.960Z,8.57
2018-05-04T20:48:20.705Z,6.27
2018-05-04T20:50:46.445Z,5.37
2018-05-04T20:53:12.204Z,4.70
2018-05-04T20:55:37.945Z,4.00
2018-05-04T20:58:03.679Z,3.23
2018-05-04T21:00:29.395Z,2.90
2018-05-04T21:02:55.145Z,3.77
2018-05-04T21:05:20.869Z,3.40
2018-05-04T21:07:46.616Z,3.30
2018-05-04T21:10:12.351Z,4.37
2018-05-04T21:12:38.080Z,3.50
2018-05-04T21:15:03.813Z,3.17
2018-05-04T21:17:29.531Z,4.30
2018-05-04T21:19:55.333Z,3.60
2018-05-04T21:22:21.012Z,4.20
2018-05-04T21:24:46.753Z,3.80
2018-05-04T21:27:12.489Z,3.37
2018-05-04T21:29:38.216Z,3.50
2018-05-04T21:32:03.943Z,3.43
2018-05-04T21:34:29.672Z,3.83
2018-05-04T21:36:55.399Z,4.63
2018-05-04T21:39:21.140Z,6.43
2018-05-04T21:41:46.874Z,6.50
2018-05-04T21:44:12.595Z,7.23
2018-05-04T21:46:38.309Z,6.13
2018-05-04T21:49:04.050Z,6.70
2018-05-04T21:51:29.777Z,6.10
2018-05-04T21:53:55.507Z,7.13
2018-05-04T21:56:21.228Z,7.00
2018-05-04T21:58:46.960Z,6.20
2018-05-04T22:01:12.701Z,6.77
2018-05-04T22:03:38.440Z,5.93
2018-05-04T22:06:04.171Z,6.10
2018-05-04T22:08:29.929Z,4.80
2018-05-04T22:10:55.665Z,5.37
2018-05-04T22:13:21.401Z,5.40
2018-05-04T22:15:47.133Z,4.70
2018-05-04T22:18:12.876Z,4.43
2018-05-04T22:20:38.605Z,5.33
2018-05-04T22:23:04.329Z,4.10
2018-05-04T22:25:30.065Z,4.43
2018-05-04T22:27:55.784Z,4.50
2018-05-04T22:30:21.521Z,4.67
2018-05-04T22:32:47.252Z,4.07
2018-05-04T22:35:12.977Z,4.57
2018-05-04T22:37:38.704Z,4.40
2018-05-04T22:40:04.424Z,4.77
2018-05-04T22:42:30.164Z,4.90
2018-05-04T22:44:55.899Z,4.53
2018-05-04T22:47:21.647Z,4.57
2018-05-04T22:49:47.365Z,5.10
2018-05-04T22:52:13.080Z,4.70
2018-05-04T22:54:38.817Z,5.00
2018-05-04T22:57:04.537Z,5.03
2018-05-04T22:59:30.288Z,4.60
2018-05-04T23:01:56.024Z,4.43
2018-05-04T23:04:21.781Z,4.70
2018-05-04T23:06:47.535Z,4.03
2018-05-04T23:09:13.281Z,4.50
2018-05-04T23:11:39.014Z,4.07
2018-05-04T23:14:04.744Z,4.10
2018-05-04T23:16:30.533Z,4.30
2018-05-04T23:18:56.215Z,4.50
2018-05-04T23:21:21.948Z,4.53
2018-05-04T23:23:47.688Z,4.20
2018-05-04T23:26:13.424Z,4.07
2018-05-04T23:28:39.164Z,4.60
2018-05-04T23:31:04.893Z,4.77
2018-05-04T23:33:30.654Z,5.20
2018-05-04T23:35:56.386Z,5.20
2018-05-04T23:38:22.124Z,5.43
2018-05-04T23:40:47.860Z,5.50
2018-05-04T23:43:13.598Z,6.27
2018-05-04T23:45:39.324Z,6.30
2018-05-04T23:48:05.078Z,6.03
2018-05-04T23:50:30.941Z,5.97
2018-05-04T23:52:56.671Z,6.80
2018-05-04T23:55:22.409Z,5.97
2018-05-04T23:57:48.154Z,5.77
